Time;durP1;ratioP1;P1;durP2;ratioP2;P2;SDS_P1;SDS_P2;PMS_P1;PMS_P2;Temp;Humidity;BMP_temperature;BMP_pressure;BME280_temperature;BME280_humidity;BME280_pressure;Samples;Min_cycle;Max_cycle;Signal;HPM_P1;HPM_P2
2022/05/18 00:01:51;;;;;;;0.77;0.30;;;16.90;99.90;;;;;;5014432;28;20045;-62
2022/05/18 00:04:18;;;;;;;0.43;0.30;;;16.90;99.90;;;;;;5032362;28;20049;-62
2022/05/18 00:06:45;;;;;;;0.40;0.38;;;16.80;99.90;;;;;;5036557;28;20053;-62
2022/05/18 00:09:12;;;;;;;0.70;0.45;;;16.70;99.90;;;;;;5032021;28;20631;-63
2022/05/18 00:11:38;;;;;;;0.30;0.30;;;16.60;99.90;;;;;;5031992;28;20133;-62
2022/05/18 00:14:07;;;;;;;1.05;0.60;;;16.60;99.90;;;;;;5035154;28;20527;-62
2022/05/18 00:16:33;;;;;;;1.00;0.50;;;16.50;99.90;;;;;;5037293;28;20599;-62
2022/05/18 00:19:01;;;;;;;0.75;0.50;;;16.50;99.90;;;;;;5032099;28;20381;-62
2022/05/18 00:21:27;;;;;;;1.10;0.52;;;16.40;99.90;;;;;;5029502;28;20128;-62
2022/05/18 00:23:54;;;;;;;1.17;0.68;;;16.30;99.90;;;;;;5029290;28;20053;-62
2022/05/18 00:26:21;;;;;;;0.68;0.50;;;16.20;99.90;;;;;;5032561;28;20465;-61
2022/05/18 00:28:48;;;;;;;1.05;0.65;;;16.20;99.90;;;;;;5037173;28;20160;-62
2022/05/18 00:31:14;;;;;;;0.93;0.60;;;16.10;99.90;;;;;;5037620;28;20037;-62
2022/05/18 00:33:41;;;;;;;0.50;0.50;;;16.10;99.90;;;;;;5030764;28;20065;-62
2022/05/18 00:36:08;;;;;;;0.90;0.50;;;16.00;99.90;;;;;;5035437;28;20133;-62
2022/05/18 00:38:34;;;;;;;0.65;0.40;;;16.00;99.90;;;;;;5021004;28;20051;-61
2022/05/18 00:41:01;;;;;;;0.95;0.60;;;15.90;99.90;;;;;;5016673;28;20393;-63
2022/05/18 00:43:31;;;;;;;1.02;0.50;;;15.90;99.90;;;;;;5000350;28;20124;-61
2022/05/18 00:45:59;;;;;;;0.50;0.40;;;15.80;99.90;;;;;;5037634;28;20077;-61
2022/05/18 00:48:26;;;;;;;1.02;0.60;;;15.80;99.90;;;;;;5021282;28;20088;-61
2022/05/18 00:50:53;;;;;;;0.40;0.35;;;15.80;99.90;;;;;;5037629;28;20045;-61
2022/05/18 00:53:25;;;;;;;0.60;0.50;;;15.70;99.90;;;;;;5020285;28;20077;-61
2022/05/18 00:55:57;;;;;;;0.90;0.47;;;15.60;99.90;;;;;;5028470;28;20128;-61
2022/05/18 00:58:23;;;;;;;0.50;0.40;;;15.60;99.90;;;;;;5016928;28;20124;-61
2022/05/18 01:00:50;;;;;;;0.52;0.50;;;15.60;99.90;;;;;;5035775;28;20133;-61
2022/05/18 01:03:22;;;;;;;0.43;0.43;;;15.50;99.90;;;;;;5035990;28;20053;-61
2022/05/18 01:06:24;;;;;;;0.75;0.60;;;15.50;99.90;;;;;;5021163;28;20400;-61
2022/05/18 01:09:15;;;;;;;0.40;0.40;;;15.40;99.90;;;;;;5015449;28;20625;-61
2022/05/18 01:11:42;;;;;;;0.50;0.40;;;15.40;99.90;;;;;;5028522;28;20115;-61
2022/05/18 01:14:15;;;;;;;1.13;1.02;;;15.30;99.90;;;;;;5027481;28;20124;-62
2022/05/18 01:16:42;;;;;;;0.50;0.40;;;15.30;99.90;;;;;;5036555;28;20092;-61
2022/05/18 01:19:28;;;;;;;0.30;0.30;;;15.30;99.90;;;;;;5035013;28;20371;-61
2022/05/18 01:22:07;;;;;;;0.60;0.30;;;15.20;99.90;;;;;;5035391;28;20111;-60
2022/05/18 01:24:48;;;;;;;0.50;0.32;;;15.20;99.90;;;;;;5001130;28;20087;-61
2022/05/18 01:27:15;;;;;;;0.40;0.40;;;15.10;99.90;;;;;;5036473;28;20041;-61
2022/05/18 01:29:42;;;;;;;1.52;0.40;;;15.00;99.90;;;;;;5034507;28;20130;-61
2022/05/18 01:32:13;;;;;;;0.38;0.30;;;15.00;99.90;;;;;;5037679;28;20492;-61
2022/05/18 01:34:42;;;;;;;0.35;0.35;;;14.90;99.90;;;;;;5033726;28;20128;-60
2022/05/18 01:37:09;;;;;;;0.30;0.30;;;14.90;99.90;;;;;;5029526;28;20052;-61
2022/05/18 01:39:39;;;;;;;0.50;0.50;;;14.90;99.90;;;;;;5029916;28;20083;-61
2022/05/18 01:42:06;;;;;;;1.10;0.40;;;14.80;99.90;;;;;;5020471;28;20505;-61
2022/05/18 01:44:37;;;;;;;0.63;0.47;;;14.80;99.90;;;;;;5035936;28;20048;-61
2022/05/18 01:47:04;;;;;;;0.60;0.40;;;14.70;99.90;;;;;;5035574;28;20091;-61
2022/05/18 01:49:32;;;;;;;0.88;0.57;;;14.70;99.90;;;;;;5035679;28;20084;-61
2022/05/18 01:51:59;;;;;;;0.32;0.30;;;14.70;99.90;;;;;;5016015;28;20120;-61
2022/05/18 01:54:25;;;;;;;0.75;0.60;;;14.60;99.90;;;;;;5029423;28;20080;-60
2022/05/18 01:56:52;;;;;;;0.43;0.43;;;14.60;99.90;;;;;;5037129;28;20478;-61
2022/05/18 01:59:19;;;;;;;0.35;0.30;;;14.60;99.90;;;;;;5035268;28;20084;-61
2022/05/18 02:01:46;;;;;;;0.30;0.30;;;14.50;99.90;;;;;;5033629;28;20079;-61
2022/05/18 02:04:13;;;;;;;0.35;0.30;;;14.50;99.90;;;;;;5036499;28;20099;-61
2022/05/18 02:06:39;;;;;;;1.05;0.45;;;14.50;99.90;;;;;;5037119;28;20468;-60
2022/05/18 02:09:06;;;;;;;0.50;0.50;;;14.40;99.90;;;;;;5036293;28;20065;-61
2022/05/18 02:11:34;;;;;;;0.50;0.32;;;14.40;99.90;;;;;;5036644;28;20068;-61
2022/05/18 02:14:01;;;;;;;0.45;0.32;;;14.30;99.90;;;;;;5032842;28;20466;-61
2022/05/18 02:16:28;;;;;;;0.47;0.30;;;14.30;99.90;;;;;;5011066;28;20141;-61
2022/05/18 02:18:55;;;;;;;0.60;0.47;;;14.20;99.90;;;;;;5028924;28;20060;-61
2022/05/18 02:21:22;;;;;;;0.52;0.30;;;14.20;99.90;;;;;;5031684;28;20131;-61
2022/05/18 02:23:48;;;;;;;0.25;0.22;;;14.20;99.90;;;;;;5033592;28;20590;-61
2022/05/18 02:26:16;;;;;;;0.57;0.40;;;14.10;99.90;;;;;;5029622;28;20084;-61
2022/05/18 02:28:44;;;;;;;0.70;0.60;;;14.10;99.90;;;;;;5033464;28;20447;-61
2022/05/18 02:31:11;;;;;;;0.63;0.50;;;14.10;99.90;;;;;;5035662;28;20140;-61
2022/05/18 02:33:38;;;;;;;0.65;0.40;;;14.10;99.90;;;;;;5031971;28;20044;-61
2022/05/18 02:36:07;;;;;;;0.52;0.30;;;14.00;99.90;;;;;;5035020;28;20480;-61
2022/05/18 02:38:34;;;;;;;0.40;0.30;;;14.00;99.90;;;;;;5036041;28;20140;-61
2022/05/18 02:41:01;;;;;;;0.43;0.35;;;14.00;99.90;;;;;;5036580;28;20080;-61
2022/05/18 02:43:29;;;;;;;0.82;0.40;;;14.00;99.90;;;;;;5002638;28;20085;-61
2022/05/18 02:46:06;;;;;;;0.63;0.30;;;13.90;99.90;;;;;;5015017;28;20076;-58
2022/05/18 02:48:33;;;;;;;1.08;0.40;;;13.90;99.90;;;;;;5033321;28;20049;-61
2022/05/18 02:50:59;;;;;;;0.75;0.30;;;13.90;99.90;;;;;;5038164;28;20076;-61
2022/05/18 02:53:26;;;;;;;0.40;0.40;;;13.90;99.90;;;;;;5034329;28;20088;-61
2022/05/18 02:56:08;;;;;;;0.32;0.30;;;13.80;99.90;;;;;;5035720;28;20069;-61
2022/05/18 02:58:38;;;;;;;0.43;0.40;;;13.80;99.90;;;;;;5035476;28;20222;-61
2022/05/18 03:01:26;;;;;;;0.47;0.45;;;13.80;99.90;;;;;;5036472;28;20107;-61
2022/05/18 03:03:53;;;;;;;0.75;0.30;;;13.70;99.90;;;;;;5035212;28;20763;-61
2022/05/18 03:06:22;;;;;;;0.40;0.30;;;13.70;99.90;;;;;;5031649;28;20129;-61
2022/05/18 03:08:49;;;;;;;1.20;0.35;;;13.60;99.90;;;;;;5037459;28;21470;-61
2022/05/18 03:11:16;;;;;;;0.45;0.32;;;13.60;99.90;;;;;;5040895;28;20106;-61
2022/05/18 03:13:43;;;;;;;0.80;0.40;;;13.60;99.90;;;;;;5037297;28;20134;-61
2022/05/18 03:16:09;;;;;;;0.43;0.30;;;13.50;99.90;;;;;;5042294;28;20100;-61
2022/05/18 03:18:36;;;;;;;2.55;0.57;;;13.50;99.90;;;;;;5007530;28;20103;-61
2022/05/18 03:23:49;;;;;;;0.30;0.30;;;13.50;99.90;;;;;;5042132;28;20076;-61
2022/05/18 03:26:18;;;;;;;0.43;0.28;;;13.50;99.90;;;;;;5033666;28;20132;-60
2022/05/18 03:28:45;;;;;;;1.05;0.30;;;13.40;99.90;;;;;;5034673;28;20171;-61
2022/05/18 03:31:12;;;;;;;0.55;0.32;;;13.30;99.90;;;;;;5034791;28;20676;-60
2022/05/18 03:33:39;;;;;;;0.57;0.30;;;13.30;99.90;;;;;;5020095;28;20037;-61
2022/05/18 03:36:08;;;;;;;2.15;0.40;;;13.30;99.90;;;;;;5041436;28;20149;-61
2022/05/18 03:38:34;;;;;;;0.25;0.22;;;13.30;99.90;;;;;;5024344;28;20148;-61
2022/05/18 03:41:01;;;;;;;0.43;0.28;;;13.20;99.90;;;;;;5034662;28;20221;-61
2022/05/18 03:43:28;;;;;;;0.20;0.20;;;13.20;99.90;;;;;;5034207;28;20094;-61
2022/05/18 03:45:56;;;;;;;0.35;0.22;;;13.20;99.90;;;;;;5037241;28;20568;-61
2022/05/18 03:48:22;;;;;;;0.52;0.40;;;13.20;99.90;;;;;;5033800;28;20126;-60
2022/05/18 03:50:49;;;;;;;0.70;0.32;;;13.10;99.90;;;;;;5036743;28;20128;-61
2022/05/18 03:53:16;;;;;;;0.60;0.30;;;13.10;99.90;;;;;;5039029;28;20093;-61
2022/05/18 03:55:43;;;;;;;0.30;0.20;;;13.10;99.90;;;;;;5041764;28;20069;-61
2022/05/18 03:58:10;;;;;;;0.30;0.30;;;13.00;99.90;;;;;;5037840;28;20410;-60
2022/05/18 04:00:39;;;;;;;0.85;0.20;;;13.10;99.90;;;;;;5032896;28;20128;-60
2022/05/18 04:03:09;;;;;;;0.50;0.30;;;13.10;99.90;;;;;;5038231;28;20087;-60
2022/05/18 04:05:37;;;;;;;0.63;0.20;;;13.10;99.90;;;;;;5039362;28;20120;-61
2022/05/18 04:08:05;;;;;;;0.30;0.30;;;13.00;99.90;;;;;;5023248;28;20045;-61
2022/05/18 04:10:32;;;;;;;0.20;0.20;;;13.00;99.90;;;;;;5038242;28;20045;-61
2022/05/18 04:12:58;;;;;;;0.55;0.30;;;13.00;99.90;;;;;;5036275;28;20128;-61
2022/05/18 04:15:27;;;;;;;0.20;0.20;;;13.00;99.90;;;;;;5040545;28;20139;-60
2022/05/18 04:17:54;;;;;;;0.43;0.22;;;13.00;99.90;;;;;;5039552;28;20504;-61
2022/05/18 04:20:22;;;;;;;0.30;0.20;;;12.90;99.90;;;;;;5032361;28;20148;-61
2022/05/18 04:22:49;;;;;;;0.52;0.30;;;12.90;99.90;;;;;;5038853;28;20444;-61
2022/05/18 04:25:20;;;;;;;0.30;0.25;;;12.90;99.90;;;;;;5038568;28;20465;-60
2022/05/18 04:27:47;;;;;;;0.22;0.17;;;12.90;99.90;;;;;;5036799;28;20045;-61
2022/05/18 04:30:15;;;;;;;0.30;0.30;;;12.80;99.90;;;;;;5037622;28;20598;-60
2022/05/18 04:32:42;;;;;;;0.20;0.20;;;12.80;99.90;;;;;;5040870;28;20056;-61
2022/05/18 04:35:09;;;;;;;0.28;0.20;;;12.80;99.90;;;;;;5028315;28;20099;-61
2022/05/18 04:37:36;;;;;;;1.23;0.40;;;12.80;99.90;;;;;;5037682;28;20211;-61
2022/05/18 04:40:04;;;;;;;0.50;0.20;;;12.80;99.90;;;;;;5047438;28;20049;-61
2022/05/18 04:42:31;;;;;;;0.82;0.30;;;12.80;99.90;;;;;;5043921;28;20519;-60
2022/05/18 04:44:58;;;;;;;0.35;0.30;;;12.80;99.90;;;;;;5046848;28;20483;-61
2022/05/18 04:47:25;;;;;;;0.47;0.35;;;12.70;99.90;;;;;;5047190;28;20037;-61
2022/05/18 04:49:52;;;;;;;0.75;0.30;;;12.80;99.90;;;;;;5021716;28;20147;-62
2022/05/18 04:52:19;;;;;;;0.30;0.30;;;12.80;99.90;;;;;;5025653;28;20084;-62
2022/05/18 04:54:47;;;;;;;0.30;0.30;;;12.80;99.90;;;;;;5040844;28;20577;-62
2022/05/18 04:57:14;;;;;;;0.32;0.20;;;12.80;99.90;;;;;;5028402;28;20080;-62
2022/05/18 04:59:41;;;;;;;0.30;0.30;;;12.80;99.90;;;;;;5021433;28;20056;-64
2022/05/18 05:02:07;;;;;;;0.32;0.20;;;12.90;99.90;;;;;;5027843;28;20615;-63
2022/05/18 05:04:35;;;;;;;0.13;0.13;;;12.90;99.90;;;;;;5026896;28;20064;-61
2022/05/18 05:07:02;;;;;;;1.00;0.50;;;12.90;99.90;;;;;;5034538;28;20449;-62
2022/05/18 05:09:29;;;;;;;0.68;0.40;;;12.90;99.90;;;;;;5031127;28;20128;-62
2022/05/18 05:11:56;;;;;;;0.90;0.52;;;12.90;99.90;;;;;;5033478;28;20504;-62
2022/05/18 05:14:23;;;;;;;0.95;0.70;;;12.90;99.90;;;;;;5033622;28;20152;-62
2022/05/18 05:16:49;;;;;;;0.68;0.40;;;12.90;99.90;;;;;;5036375;28;20152;-60
2022/05/18 05:19:16;;;;;;;0.40;0.38;;;12.90;99.90;;;;;;5035190;28;20132;-62
2022/05/18 05:21:43;;;;;;;0.55;0.30;;;12.80;99.90;;;;;;5025079;28;20071;-62
2022/05/18 05:24:11;;;;;;;0.30;0.30;;;12.90;99.90;;;;;;5039107;28;20643;-62
2022/05/18 05:26:38;;;;;;;0.30;0.30;;;12.90;99.90;;;;;;5033695;28;20128;-62
2022/05/18 05:29:05;;;;;;;0.30;0.28;;;12.90;99.90;;;;;;5028677;28;20049;-62
2022/05/18 05:31:32;;;;;;;0.40;0.32;;;12.90;99.90;;;;;;5032030;28;20057;-62
2022/05/18 05:33:59;;;;;;;0.25;0.25;;;12.90;99.90;;;;;;5032867;28;20056;-61
2022/05/18 05:36:26;;;;;;;0.43;0.40;;;13.00;99.90;;;;;;5021354;28;20052;-62
2022/05/18 05:38:53;;;;;;;0.40;0.22;;;13.00;99.90;;;;;;5030589;28;20132;-63
2022/05/18 05:41:20;;;;;;;0.20;0.20;;;13.00;99.90;;;;;;5036277;28;20087;-62
2022/05/18 05:43:47;;;;;;;0.35;0.30;;;13.10;99.90;;;;;;5039010;28;20045;-62
2022/05/18 05:46:14;;;;;;;0.22;0.20;;;13.20;99.90;;;;;;5035243;28;20049;-61
2022/05/18 05:48:41;;;;;;;0.32;0.30;;;13.20;99.90;;;;;;5038294;28;20080;-61
2022/05/18 05:51:12;;;;;;;0.22;0.22;;;13.30;99.90;;;;;;5012546;28;20085;-62
2022/05/18 05:53:39;;;;;;;0.30;0.30;;;13.30;99.90;;;;;;5036795;28;20102;-60
2022/05/18 05:56:07;;;;;;;0.45;0.30;;;13.40;99.90;;;;;;5032461;28;20659;-62
2022/05/18 05:58:35;;;;;;;0.45;0.30;;;13.50;99.90;;;;;;5026981;28;20045;-60
2022/05/18 06:01:03;;;;;;;1.17;0.30;;;13.50;99.90;;;;;;5029620;28;20090;-62
2022/05/18 06:03:30;;;;;;;0.40;0.25;;;13.50;99.90;;;;;;5028262;28;20073;-61
2022/05/18 06:05:57;;;;;;;0.40;0.30;;;13.60;99.90;;;;;;5032600;28;20770;-62
2022/05/18 06:08:24;;;;;;;0.60;0.20;;;13.60;99.90;;;;;;5011389;28;20076;-61
2022/05/18 06:10:50;;;;;;;1.17;0.80;;;13.70;99.90;;;;;;5003763;28;20132;-61
2022/05/18 06:13:17;;;;;;;0.57;0.20;;;13.70;99.90;;;;;;5021725;28;20144;-61
2022/05/18 06:15:44;;;;;;;0.57;0.30;;;13.70;99.90;;;;;;5020218;28;20045;-62
2022/05/18 06:18:11;;;;;;;0.50;0.40;;;13.70;99.90;;;;;;5023364;28;20056;-61
2022/05/18 06:20:45;;;;;;;0.35;0.30;;;13.80;99.90;;;;;;5016394;28;20126;-61
2022/05/18 06:23:12;;;;;;;0.20;0.20;;;13.80;99.90;;;;;;5038214;28;20150;-61
2022/05/18 06:25:38;;;;;;;1.27;0.68;;;13.90;99.90;;;;;;5037345;28;20140;-62
2022/05/18 06:28:06;;;;;;;1.33;0.65;;;14.00;99.90;;;;;;5039113;28;20055;-62
2022/05/18 06:30:33;;;;;;;0.28;0.22;;;14.00;99.90;;;;;;5038156;28;20240;-62
2022/05/18 06:32:59;;;;;;;0.75;0.40;;;14.10;99.90;;;;;;5038245;28;20088;-62
2022/05/18 06:35:26;;;;;;;0.68;0.30;;;14.20;99.90;;;;;;5037454;28;20049;-60
2022/05/18 06:37:53;;;;;;;0.57;0.20;;;14.30;99.90;;;;;;5021131;28;20098;-61
2022/05/18 06:40:20;;;;;;;0.95;0.25;;;14.40;99.90;;;;;;5038190;28;20133;-61
2022/05/18 06:42:46;;;;;;;1.25;0.50;;;14.40;99.90;;;;;;5039189;28;20056;-61
2022/05/18 06:45:14;;;;;;;1.05;0.60;;;14.50;99.90;;;;;;5039511;28;20056;-60
2022/05/18 06:47:40;;;;;;;0.93;0.47;;;14.60;99.90;;;;;;5043278;28;20084;-61
2022/05/18 06:50:08;;;;;;;1.92;0.80;;;14.70;99.90;;;;;;5040868;28;20526;-62
2022/05/18 06:52:35;;;;;;;1.15;0.50;;;14.80;99.90;;;;;;5042510;28;20116;-61
2022/05/18 06:55:02;;;;;;;1.98;0.80;;;15.00;99.90;;;;;;5042109;28;20053;-61
2022/05/18 06:57:29;;;;;;;1.52;0.57;;;15.10;99.90;;;;;;5043382;28;20087;-62
2022/05/18 06:59:56;;;;;;;0.68;0.52;;;15.30;99.90;;;;;;5041852;28;20164;-62
2022/05/18 07:02:23;;;;;;;0.93;0.55;;;15.40;99.90;;;;;;5041901;28;20487;-61
2022/05/18 07:04:50;;;;;;;0.65;0.43;;;15.40;99.90;;;;;;5041306;28;20714;-62
2022/05/18 07:07:17;;;;;;;2.05;0.50;;;15.60;99.90;;;;;;5042173;28;20080;-62
2022/05/18 07:09:44;;;;;;;1.35;0.52;;;15.70;99.90;;;;;;5041957;28;20526;-61
2022/05/18 07:12:11;;;;;;;0.95;0.57;;;15.80;99.90;;;;;;5041732;28;20127;-62
2022/05/18 07:14:38;;;;;;;0.47;0.47;;;15.90;99.90;;;;;;5033530;28;20152;-62
2022/05/18 07:17:04;;;;;;;1.10;0.50;;;16.10;99.90;;;;;;5035593;28;20055;-62
2022/05/18 07:19:31;;;;;;;1.00;0.50;;;16.20;99.90;;;;;;5038668;28;20055;-61
2022/05/18 07:21:58;;;;;;;0.82;0.50;;;16.30;99.90;;;;;;5028240;28;20227;-62
2022/05/18 07:24:24;;;;;;;1.38;0.50;;;16.40;99.90;;;;;;5027610;28;20041;-62
2022/05/18 07:26:51;;;;;;;1.75;0.88;;;16.50;99.90;;;;;;5026656;28;20061;-62
2022/05/18 07:29:18;;;;;;;1.42;0.70;;;16.50;99.90;;;;;;5032502;28;20128;-62
2022/05/18 07:34:30;;;;;;;0.95;0.60;;;16.60;99.90;;;;;;5038710;28;20056;-61
2022/05/18 07:36:57;;;;;;;0.70;0.50;;;16.80;99.90;;;;;;5042299;28;20735;-62
2022/05/18 07:39:24;;;;;;;0.73;0.40;;;16.90;99.90;;;;;;5035281;28;20079;-62
2022/05/18 07:41:51;;;;;;;0.50;0.35;;;17.00;99.90;;;;;;5024555;28;20125;-62
2022/05/18 07:44:18;;;;;;;0.40;0.40;;;17.10;99.90;;;;;;5041770;28;20045;-61
2022/05/18 07:46:44;;;;;;;0.90;0.60;;;17.10;99.90;;;;;;5042963;28;20128;-62
2022/05/18 07:49:11;;;;;;;0.70;0.52;;;17.10;99.90;;;;;;5041504;28;20388;-61
2022/05/18 07:51:38;;;;;;;2.13;1.00;;;17.20;99.90;;;;;;5038474;28;20069;-62
2022/05/18 07:54:05;;;;;;;1.00;0.60;;;17.30;99.90;;;;;;5036010;28;20152;-62
2022/05/18 07:56:34;;;;;;;0.93;0.50;;;17.30;99.90;;;;;;5028669;28;20046;-62
2022/05/18 07:59:02;;;;;;;0.57;0.38;;;17.40;99.90;;;;;;5028996;28;20589;-62
2022/05/18 08:01:29;;;;;;;0.95;0.38;;;17.50;99.90;;;;;;5030686;28;20057;-63
2022/05/18 08:03:56;;;;;;;0.55;0.40;;;17.60;99.90;;;;;;5041498;28;20100;-62
2022/05/18 08:06:23;;;;;;;0.32;0.30;;;17.60;99.90;;;;;;5041784;28;20488;-62
2022/05/18 08:08:50;;;;;;;1.08;0.55;;;17.80;99.90;;;;;;5041920;28;20045;-61
2022/05/18 08:16:48;;;;;;;0.68;0.47;;;17.90;99.90;;;;;;5042777;28;20441;-62
2022/05/18 08:19:15;;;;;;;0.88;0.35;;;17.90;99.90;;;;;;5036890;28;20053;-62
2022/05/18 08:21:41;;;;;;;1.08;0.47;;;18.00;99.90;;;;;;5041821;28;20488;-62
2022/05/18 08:24:08;;;;;;;1.02;0.50;;;18.10;99.90;;;;;;5042022;28;20084;-62
2022/05/18 08:26:35;;;;;;;1.17;0.57;;;18.10;99.90;;;;;;5042607;28;20148;-62
2022/05/18 08:29:03;;;;;;;1.38;0.60;;;18.20;99.90;;;;;;5036401;28;20103;-62
2022/05/18 08:31:29;;;;;;;2.03;0.85;;;18.40;99.90;;;;;;5039558;28;20078;-62
2022/05/18 08:33:56;;;;;;;1.20;0.50;;;18.40;99.90;;;;;;5040726;28;20149;-62
2022/05/18 08:36:26;;;;;;;0.73;0.45;;;18.50;99.90;;;;;;5023911;28;20084;-62
2022/05/18 08:38:54;;;;;;;0.80;0.50;;;18.60;99.90;;;;;;5031289;28;20136;-61
2022/05/18 08:41:22;;;;;;;1.45;0.60;;;18.60;99.90;;;;;;5044087;28;20469;-62
2022/05/18 08:43:51;;;;;;;0.93;0.80;;;18.60;99.90;;;;;;5043335;28;20162;-62
2022/05/18 08:46:44;;;;;;;0.68;0.30;;;18.80;99.90;;;;;;5025950;28;20091;-62
2022/05/18 08:49:13;;;;;;;1.75;0.63;;;18.80;99.90;;;;;;5012292;28;20752;-63
2022/05/18 08:51:56;;;;;;;0.90;0.32;;;18.90;99.90;;;;;;5000001;28;20595;-61
2022/05/18 08:54:45;;;;;;;0.52;0.40;;;18.90;99.90;;;;;;5023237;28;20087;-63
2022/05/18 08:57:19;;;;;;;0.70;0.43;;;18.90;99.90;;;;;;5009309;28;20128;-64
2022/05/18 08:59:47;;;;;;;0.32;0.32;;;18.90;99.90;;;;;;5021470;28;20084;-64
2022/05/18 09:02:22;;;;;;;0.68;0.40;;;19.10;99.90;;;;;;5003173;28;20102;-63
2022/05/18 09:04:58;;;;;;;1.08;0.47;;;19.10;99.90;;;;;;5017628;28;20065;-63
2022/05/18 09:07:47;;;;;;;0.52;0.32;;;19.20;99.90;;;;;;5005228;28;20048;-64
2022/05/18 09:10:27;;;;;;;1.35;0.65;;;19.20;99.90;;;;;;5019084;28;20057;-61
2022/05/18 09:12:55;;;;;;;1.17;0.45;;;19.20;99.90;;;;;;5000743;28;20514;-62
2022/05/18 09:16:00;;;;;;;1.30;0.50;;;19.20;99.90;;;;;;5035083;28;20144;-62
2022/05/18 09:18:52;;;;;;;0.98;0.50;;;19.10;99.90;;;;;;5009704;28;20056;-61
2022/05/18 09:22:04;;;;;;;1.50;0.53;;;19.10;99.90;;;;;;5009983;28;20091;-61
2022/05/18 09:24:54;;;;;;;1.83;0.70;;;19.10;99.90;;;;;;5025814;28;20137;-59
2022/05/18 09:27:45;;;;;;;1.35;0.50;;;19.40;99.90;;;;;;5015755;28;20049;-59
2022/05/18 09:30:17;;;;;;;0.65;0.30;;;19.60;99.90;;;;;;5025722;28;20556;-59
2022/05/18 09:32:59;;;;;;;0.50;0.40;;;19.80;99.90;;;;;;5028813;28;20103;-59
2022/05/18 09:35:36;;;;;;;1.08;0.40;;;19.90;99.90;;;;;;5013124;28;20076;-59
2022/05/18 09:38:05;;;;;;;0.85;0.40;;;19.80;99.90;;;;;;5016797;28;20044;-59
2022/05/18 09:40:41;;;;;;;1.17;0.45;;;19.80;99.90;;;;;;5021709;28;20076;-62
2022/05/18 09:43:32;;;;;;;2.65;0.55;;;19.80;99.80;;;;;;5041782;28;20052;-61
2022/05/18 09:46:23;;;;;;;0.60;0.30;;;19.70;99.90;;;;;;5022690;28;20044;-58
2022/05/18 09:49:17;;;;;;;0.90;0.50;;;19.70;99.10;;;;;;5010038;28;20063;-59
2022/05/18 09:52:02;;;;;;;1.02;0.38;;;19.70;98.20;;;;;;5024772;28;20079;-59
2022/05/18 09:54:46;;;;;;;0.70;0.40;;;19.80;99.00;;;;;;5023860;28;20094;-59
2022/05/18 09:57:46;;;;;;;1.20;0.40;;;20.00;99.10;;;;;;5039899;28;20137;-59
2022/05/18 10:00:32;;;;;;;0.20;0.20;;;19.90;98.30;;;;;;5025042;28;20051;-59
2022/05/18 10:09:14;;;;;;;2.40;0.88;;;19.90;98.30;;;;;;5041853;28;20099;-62
2022/05/18 10:11:41;;;;;;;1.55;0.50;;;20.10;99.30;;;;;;5044096;28;20055;-63
2022/05/18 10:14:30;;;;;;;1.55;0.63;;;20.10;98.60;;;;;;5026823;28;20133;-62
2022/05/18 10:17:09;;;;;;;2.72;0.70;;;20.20;99.00;;;;;;5027685;28;20059;-62
2022/05/18 10:19:51;;;;;;;1.63;0.50;;;20.20;98.90;;;;;;5025739;28;20495;-60
2022/05/18 10:22:23;;;;;;;2.05;0.50;;;20.20;99.20;;;;;;5027386;28;20149;-62
2022/05/18 10:25:10;;;;;;;1.17;0.55;;;20.20;99.00;;;;;;5024010;28;20092;-60
2022/05/18 10:27:55;;;;;;;1.23;0.50;;;20.40;99.50;;;;;;5042483;28;20105;-60
2022/05/18 10:30:34;;;;;;;1.27;0.50;;;20.50;97.60;;;;;;5023108;28;20478;-60
2022/05/18 10:33:07;;;;;;;0.82;0.50;;;20.50;98.10;;;;;;5042336;28;20330;-59
2022/05/18 10:35:46;;;;;;;;;;;20.50;98.20;;;;;;5044060;28;20145;-62
2022/05/18 10:38:25;;;;;;;1.25;0.60;;;20.60;97.90;;;;;;5045132;28;20539;-63
2022/05/18 10:41:04;;;;;;;1.38;0.50;;;20.70;97.60;;;;;;5044628;28;20140;-63
2022/05/18 10:43:37;;;;;;;1.77;0.65;;;20.70;97.50;;;;;;5044865;28;20049;-62
2022/05/18 10:46:44;;;;;;;0.95;0.50;;;20.70;97.60;;;;;;5028584;28;20057;-63
2022/05/18 10:49:35;;;;;;;1.08;0.70;;;20.80;97.80;;;;;;5043474;28;20063;-62
2022/05/18 10:52:10;;;;;;;1.00;0.50;;;20.90;97.60;;;;;;5045197;28;20085;-63
2022/05/18 10:54:37;;;;;;;0.50;0.40;;;21.00;97.30;;;;;;5044844;28;20059;-63
2022/05/18 10:57:15;;;;;;;0.75;0.50;;;21.00;96.20;;;;;;5027054;28;20074;-63
2022/05/18 11:00:00;;;;;;;0.80;0.40;;;20.90;97.10;;;;;;5040792;28;20144;-62
2022/05/18 11:02:30;;;;;;;1.15;0.60;;;21.00;97.20;;;;;;5039199;28;20129;-61
2022/05/18 11:05:02;;;;;;;1.55;0.60;;;21.10;96.40;;;;;;5037230;28;20045;-62
2022/05/18 11:07:29;;;;;;;1.48;0.70;;;21.00;95.50;;;;;;5020457;28;20053;-62
2022/05/18 11:09:57;;;;;;;2.13;0.70;;;21.10;95.70;;;;;;5038301;28;20132;-61
2022/05/18 11:12:30;;;;;;;1.65;0.60;;;21.30;96.50;;;;;;5038271;28;20088;-61
2022/05/18 11:15:06;;;;;;;1.40;0.60;;;21.40;95.60;;;;;;5038087;28;20048;-61
2022/05/18 11:17:44;;;;;;;1.85;0.85;;;21.50;94.20;;;;;;5038962;28;20059;-61
2022/05/18 11:20:30;;;;;;;1.77;0.63;;;21.60;93.30;;;;;;5018534;28;20080;-62
2022/05/18 11:23:09;;;;;;;1.48;0.52;;;21.70;93.80;;;;;;5021982;28;20098;-61
2022/05/18 11:25:45;;;;;;;1.15;0.52;;;22.00;94.10;;;;;;5021618;28;20118;-61
2022/05/18 11:28:44;;;;;;;0.93;0.52;;;22.40;94.30;;;;;;5037581;28;20392;-61
2022/05/18 11:31:34;;;;;;;0.70;0.40;;;22.50;92.60;;;;;;5039320;28;20064;-61
2022/05/18 11:34:25;;;;;;;2.47;0.57;;;22.70;91.50;;;;;;5040555;28;20106;-60
2022/05/18 11:37:17;;;;;;;1.20;0.55;;;22.90;91.40;;;;;;5041316;28;20792;-61
2022/05/18 11:40:06;;;;;;;2.08;0.80;;;22.90;91.00;;;;;;5041208;28;20136;-62
2022/05/18 11:42:52;;;;;;;0.50;0.30;;;23.20;90.10;;;;;;5042013;28;20482;-61
2022/05/18 11:45:37;;;;;;;0.57;0.40;;;23.30;87.50;;;;;;5041076;28;20056;-61
2022/05/18 11:48:18;;;;;;;1.73;0.70;;;23.70;86.30;;;;;;5041990;28;20080;-62
2022/05/18 11:50:59;;;;;;;2.10;1.90;;;23.90;88.30;;;;;;5022453;28;20433;-62
2022/05/18 11:53:42;;;;;;;0.40;0.40;;;24.10;88.90;;;;;;5041297;28;20140;-61
2022/05/18 11:56:11;;;;;;;1.52;0.50;;;24.60;88.80;;;;;;5041047;28;20127;-62
2022/05/18 12:01:48;;;;;;;0.40;0.40;;;25.10;83.20;;;;;;5024591;28;20135;-62
2022/05/18 12:04:35;;;;;;;0.57;0.45;;;25.30;84.40;;;;;;5022226;28;20045;-60
2022/05/18 12:07:19;;;;;;;0.85;0.50;;;25.60;82.50;;;;;;5020571;28;20064;-60
2022/05/18 12:09:54;;;;;;;1.45;0.57;;;25.70;80.60;;;;;;4996504;28;20073;-61
2022/05/18 12:12:27;;;;;;;1.52;0.70;;;25.70;77.80;;;;;;5022550;28;20080;-61
2022/05/18 12:15:03;;;;;;;1.27;0.60;;;25.90;75.30;;;;;;5039626;28;20049;-60
2022/05/18 12:17:44;;;;;;;1.80;0.80;;;25.80;76.80;;;;;;5041299;28;20074;-61
2022/05/18 12:20:28;;;;;;;3.08;0.80;;;26.30;76.10;;;;;;5021462;28;20669;-60
2022/05/18 12:22:58;;;;;;;0.95;0.52;;;26.80;75.00;;;;;;5041144;28;20059;-60
2022/05/18 12:25:26;;;;;;;1.05;0.60;;;27.00;71.70;;;;;;5022755;28;20335;-62
2022/05/18 12:27:54;;;;;;;0.73;0.40;;;26.90;71.30;;;;;;5023342;28;20691;-62
2022/05/18 12:30:21;;;;;;;0.50;0.50;;;26.90;67.90;;;;;;5020421;28;20132;-62
2022/05/18 12:32:48;;;;;;;0.98;0.43;;;27.00;68.80;;;;;;5007167;28;20088;-61
2022/05/18 12:35:33;;;;;;;0.95;0.63;;;27.10;67.60;;;;;;5022505;28;20404;-60
2022/05/18 12:38:10;;;;;;;0.85;0.40;;;27.10;68.30;;;;;;5025948;28;20722;-62
2022/05/18 12:40:53;;;;;;;0.57;0.40;;;27.60;68.90;;;;;;5023375;28;20136;-61
2022/05/18 12:43:44;;;;;;;0.82;0.30;;;27.90;67.70;;;;;;5013806;28;20057;-61
2022/05/18 12:46:16;;;;;;;0.57;0.40;;;28.10;65.30;;;;;;5039323;28;20401;-61
2022/05/18 12:48:58;;;;;;;0.63;0.50;;;28.20;66.10;;;;;;5040551;28;20137;-62
2022/05/18 12:51:29;;;;;;;0.40;0.30;;;28.40;64.50;;;;;;5022840;28;20139;-62
2022/05/18 12:54:04;;;;;;;0.32;0.30;;;28.60;64.90;;;;;;5040460;28;20623;-61
2022/05/18 12:56:37;;;;;;;1.05;0.40;;;28.50;62.90;;;;;;5023919;28;20081;-62
2022/05/18 12:59:11;;;;;;;0.43;0.30;;;28.60;62.80;;;;;;5040305;28;20052;-62
2022/05/18 13:01:39;;;;;;;0.98;0.43;;;28.80;62.60;;;;;;5040643;28;20057;-62
2022/05/18 13:04:09;;;;;;;0.82;0.47;;;28.90;60.60;;;;;;5039562;28;20083;-59
2022/05/18 13:06:36;;;;;;;0.90;0.60;;;28.70;62.20;;;;;;5039574;28;20643;-61
2022/05/18 13:09:21;;;;;;;0.30;0.30;;;28.50;61.90;;;;;;5040750;28;20132;-60
2022/05/18 13:12:06;;;;;;;0.45;0.43;;;28.30;63.60;;;;;;5040253;28;20053;-60
2022/05/18 13:14:56;;;;;;;0.73;0.40;;;28.80;64.80;;;;;;5039423;28;20745;-61
2022/05/18 13:17:23;;;;;;;1.02;0.52;;;29.50;62.60;;;;;;5041328;28;20151;-60
2022/05/18 13:19:55;;;;;;;0.43;0.40;;;29.60;60.80;;;;;;5020784;28;20135;-60
2022/05/18 13:22:21;;;;;;;0.60;0.40;;;29.90;62.20;;;;;;5022473;28;20123;-61
2022/05/18 13:24:54;;;;;;;0.50;0.40;;;30.10;60.70;;;;;;5036162;28;20124;-60
2022/05/18 13:27:37;;;;;;;0.90;0.45;;;30.30;59.30;;;;;;5004793;28;20148;-61
2022/05/18 13:30:08;;;;;;;1.52;0.60;;;30.30;59.70;;;;;;5014482;28;20514;-60
2022/05/18 13:32:35;;;;;;;1.23;0.43;;;30.20;59.20;;;;;;5024958;28;20431;-60